Terminal Aerodrome Forecast
Issued by NWS

Home | Current Version | Previous Version | Text Only | Print | Product List | Glossary On
Versions: 1 2 3 4 5 6 7 8 9 10 11 12 13
441
FTUS46 KPDT 261739
TAFDLS
TAF
KDLS 261739Z 2618/2718 VRB04KT P6SM SCT250
     FM270000 30006KT P6SM SCT250
     FM271700 31007KT P6SM SKC=

USA.gov is the U.S. government's official web portal to all federal, state and local government web resources and services.